sensor_id;sensor_type;location;lat;lon;timestamp;pressure;altitude;pressure_sealevel;temperature;humidity
45523;BME280;31254;51.680;5.394;2024-02-16T00:01:48;100923.53;;;12.53;100.00
45523;BME280;31254;51.680;5.394;2024-02-16T00:04:14;100852.47;;;12.09;100.00
45523;BME280;31254;51.680;5.394;2024-02-16T00:06:41;100881.16;;;12.31;100.00
45523;BME280;31254;51.680;5.394;2024-02-16T00:09:08;100901.91;;;12.42;100.00
45523;BME280;31254;51.680;5.394;2024-02-16T00:11:37;100979.34;;;12.87;100.00
45523;BME280;31254;51.680;5.394;2024-02-16T00:14:04;100881.81;;;12.25;100.00
45523;BME280;31254;51.680;5.394;2024-02-16T00:16:30;101014.72;;;13.06;100.00
45523;BME280;31254;51.680;5.394;2024-02-16T00:18:57;100905.84;;;12.39;100.00
45523;BME280;31254;51.680;5.394;2024-02-16T00:21:24;101000.31;;;12.96;100.00
45523;BME280;31254;51.680;5.394;2024-02-16T00:23:50;101005.47;;;12.99;100.00
45523;BME280;31254;51.680;5.394;2024-02-16T00:26:17;100883.28;;;12.19;100.00
45523;BME280;31254;51.680;5.394;2024-02-16T00:28:44;100938.69;;;12.39;100.00
45523;BME280;31254;51.680;5.394;2024-02-16T00:31:10;100792.41;;;11.55;100.00
45523;BME280;31254;51.680;5.394;2024-02-16T00:33:37;100997.31;;;12.89;100.00
45523;BME280;31254;51.680;5.394;2024-02-16T00:36:04;100646.63;;;10.76;100.00
45523;BME280;31254;51.680;5.394;2024-02-16T00:38:31;100899.22;;;12.24;100.00
45523;BME280;31254;51.680;5.394;2024-02-16T00:40:57;100978.53;;;12.68;100.00
45523;BME280;31254;51.680;5.394;2024-02-16T00:43:24;100995.09;;;12.85;100.00
45523;BME280;31254;51.680;5.394;2024-02-16T00:45:51;100963.69;;;12.71;100.00
45523;BME280;31254;51.680;5.394;2024-02-16T00:48:18;100908.53;;;12.31;100.00
45523;BME280;31254;51.680;5.394;2024-02-16T00:50:44;100990.50;;;12.93;100.00
45523;BME280;31254;51.680;5.394;2024-02-16T00:53:11;100932.56;;;12.46;100.00
45523;BME280;31254;51.680;5.394;2024-02-16T00:55:37;100873.75;;;12.23;100.00
45523;BME280;31254;51.680;5.394;2024-02-16T00:58:04;100782.22;;;11.65;100.00
45523;BME280;31254;51.680;5.394;2024-02-16T01:00:31;100986.38;;;12.89;100.00
45523;BME280;31254;51.680;5.394;2024-02-16T01:02:58;100990.31;;;12.87;100.00
45523;BME280;31254;51.680;5.394;2024-02-16T01:05:25;100935.69;;;12.51;100.00
45523;BME280;31254;51.680;5.394;2024-02-16T01:07:51;100945.59;;;12.52;100.00
45523;BME280;31254;51.680;5.394;2024-02-16T01:10:18;101003.09;;;12.78;100.00
45523;BME280;31254;51.680;5.394;2024-02-16T01:12:45;100984.09;;;12.76;100.00
45523;BME280;31254;51.680;5.394;2024-02-16T01:15:12;100853.19;;;11.93;100.00
45523;BME280;31254;51.680;5.394;2024-02-16T01:17:38;100840.44;;;11.84;100.00
45523;BME280;31254;51.680;5.394;2024-02-16T01:20:06;100969.00;;;12.72;100.00
45523;BME280;31254;51.680;5.394;2024-02-16T01:22:38;100915.38;;;12.35;100.00
45523;BME280;31254;51.680;5.394;2024-02-16T01:25:05;100793.16;;;11.65;100.00
45523;BME280;31254;51.680;5.394;2024-02-16T01:27:31;100978.38;;;12.70;100.00
45523;BME280;31254;51.680;5.394;2024-02-16T01:29:59;100955.38;;;12.54;100.00
45523;BME280;31254;51.680;5.394;2024-02-16T01:32:26;100880.75;;;12.00;100.00
45523;BME280;31254;51.680;5.394;2024-02-16T01:34:53;100848.09;;;11.98;100.00
45523;BME280;31254;51.680;5.394;2024-02-16T01:37:20;100774.28;;;11.54;100.00
45523;BME280;31254;51.680;5.394;2024-02-16T01:39:46;100809.63;;;11.74;100.00
45523;BME280;31254;51.680;5.394;2024-02-16T01:42:13;100945.91;;;12.49;100.00
45523;BME280;31254;51.680;5.394;2024-02-16T01:44:39;100891.97;;;12.15;100.00
45523;BME280;31254;51.680;5.394;2024-02-16T01:47:06;100765.00;;;11.47;100.00
45523;BME280;31254;51.680;5.394;2024-02-16T01:49:33;100906.44;;;12.25;100.00
45523;BME280;31254;51.680;5.394;2024-02-16T01:52:00;100954.56;;;12.62;100.00
45523;BME280;31254;51.680;5.394;2024-02-16T01:54:27;100963.78;;;12.61;100.00
45523;BME280;31254;51.680;5.394;2024-02-16T01:56:54;100956.59;;;12.60;100.00
45523;BME280;31254;51.680;5.394;2024-02-16T01:59:22;100751.84;;;11.24;100.00
45523;BME280;31254;51.680;5.394;2024-02-16T02:01:49;100745.19;;;11.27;100.00
45523;BME280;31254;51.680;5.394;2024-02-16T02:04:15;100686.22;;;10.98;100.00
45523;BME280;31254;51.680;5.394;2024-02-16T02:06:42;100922.75;;;12.35;100.00
45523;BME280;31254;51.680;5.394;2024-02-16T02:09:09;100613.66;;;10.51;100.00
45523;BME280;31254;51.680;5.394;2024-02-16T02:11:36;100669.53;;;10.83;100.00
45523;BME280;31254;51.680;5.394;2024-02-16T02:14:04;100748.88;;;11.36;100.00
45523;BME280;31254;51.680;5.394;2024-02-16T02:16:31;100696.38;;;11.06;100.00
45523;BME280;31254;51.680;5.394;2024-02-16T02:19:10;100925.84;;;12.40;100.00
45523;BME280;31254;51.680;5.394;2024-02-16T02:21:36;100806.19;;;11.71;100.00
45523;BME280;31254;51.680;5.394;2024-02-16T02:24:03;100888.28;;;12.24;100.00
45523;BME280;31254;51.680;5.394;2024-02-16T02:26:30;100873.44;;;12.00;100.00
45523;BME280;31254;51.680;5.394;2024-02-16T02:28:57;100726.69;;;11.21;100.00
45523;BME280;31254;51.680;5.394;2024-02-16T02:31:23;100916.22;;;12.36;100.00
45523;BME280;31254;51.680;5.394;2024-02-16T02:33:50;100667.03;;;10.90;100.00
45523;BME280;31254;51.680;5.394;2024-02-16T02:36:17;100884.66;;;12.15;100.00
45523;BME280;31254;51.680;5.394;2024-02-16T02:38:43;100933.41;;;12.46;100.00
45523;BME280;31254;51.680;5.394;2024-02-16T02:41:10;100838.09;;;11.89;100.00
45523;BME280;31254;51.680;5.394;2024-02-16T02:43:37;100933.41;;;12.46;100.00
45523;BME280;31254;51.680;5.394;2024-02-16T02:46:03;100944.38;;;12.46;100.00
45523;BME280;31254;51.680;5.394;2024-02-16T02:48:30;100756.25;;;11.43;100.00
45523;BME280;31254;51.680;5.394;2024-02-16T02:50:57;100951.72;;;12.46;100.00
45523;BME280;31254;51.680;5.394;2024-02-16T02:53:28;100875.75;;;12.13;100.00
45523;BME280;31254;51.680;5.394;2024-02-16T02:55:54;100885.50;;;12.16;100.00
45523;BME280;31254;51.680;5.394;2024-02-16T02:58:21;100814.53;;;11.70;100.00
45523;BME280;31254;51.680;5.394;2024-02-16T03:00:47;100923.81;;;12.42;100.00
45523;BME280;31254;51.680;5.394;2024-02-16T03:03:14;100782.63;;;11.52;100.00
45523;BME280;31254;51.680;5.394;2024-02-16T03:05:42;100861.34;;;12.11;100.00
45523;BME280;31254;51.680;5.394;2024-02-16T03:08:09;100798.16;;;11.70;100.00
45523;BME280;31254;51.680;5.394;2024-02-16T03:10:37;100846.16;;;12.09;100.00
45523;BME280;31254;51.680;5.394;2024-02-16T03:13:05;100790.97;;;11.69;100.00
45523;BME280;31254;51.680;5.394;2024-02-16T03:15:33;100833.28;;;11.83;100.00
45523;BME280;31254;51.680;5.394;2024-02-16T03:18:02;100912.47;;;12.37;100.00
45523;BME280;31254;51.680;5.394;2024-02-16T03:20:29;100823.97;;;11.76;100.00
45523;BME280;31254;51.680;5.394;2024-02-16T03:22:56;100898.97;;;12.35;100.00
45523;BME280;31254;51.680;5.394;2024-02-16T03:25:23;100903.75;;;12.33;100.00
45523;BME280;31254;51.680;5.394;2024-02-16T03:27:50;100826.91;;;11.82;100.00
45523;BME280;31254;51.680;5.394;2024-02-16T03:30:17;100863.94;;;12.13;100.00
45523;BME280;31254;51.680;5.394;2024-02-16T03:32:50;100888.34;;;12.32;100.00
45523;BME280;31254;51.680;5.394;2024-02-16T03:35:18;100926.63;;;12.32;100.00
45523;BME280;31254;51.680;5.394;2024-02-16T03:37:44;100816.00;;;11.82;100.00
45523;BME280;31254;51.680;5.394;2024-02-16T03:40:11;100808.59;;;11.75;100.00
45523;BME280;31254;51.680;5.394;2024-02-16T03:42:39;100804.78;;;11.67;100.00
45523;BME280;31254;51.680;5.394;2024-02-16T03:45:07;100793.91;;;11.76;100.00
45523;BME280;31254;51.680;5.394;2024-02-16T03:47:34;100765.59;;;11.59;100.00
45523;BME280;31254;51.680;5.394;2024-02-16T03:50:02;100840.63;;;12.00;100.00
45523;BME280;31254;51.680;5.394;2024-02-16T03:52:28;100830.06;;;11.87;100.00
45523;BME280;31254;51.680;5.394;2024-02-16T03:54:55;100895.69;;;12.32;100.00
45523;BME280;31254;51.680;5.394;2024-02-16T03:57:21;100860.13;;;12.05;100.00
45523;BME280;31254;51.680;5.394;2024-02-16T03:59:48;100822.56;;;11.89;100.00
45523;BME280;31254;51.680;5.394;2024-02-16T04:02:15;100849.72;;;12.09;100.00
45523;BME280;31254;51.680;5.394;2024-02-16T04:04:41;100773.88;;;11.67;100.00
45523;BME280;31254;51.680;5.394;2024-02-16T04:07:08;100899.03;;;12.43;100.00
45523;BME280;31254;51.680;5.394;2024-02-16T04:09:35;100902.63;;;12.44;100.00
45523;BME280;31254;51.680;5.394;2024-02-16T04:12:02;100894.03;;;12.39;100.00
45523;BME280;31254;51.680;5.394;2024-02-16T04:14:30;100789.00;;;11.79;100.00
45523;BME280;31254;51.680;5.394;2024-02-16T04:16:57;100592.47;;;10.45;99.98
45523;BME280;31254;51.680;5.394;2024-02-16T04:19:26;100900.06;;;12.42;100.00
45523;BME280;31254;51.680;5.394;2024-02-16T04:21:53;100807.31;;;11.87;100.00
45523;BME280;31254;51.680;5.394;2024-02-16T04:24:23;100918.66;;;12.39;100.00
45523;BME280;31254;51.680;5.394;2024-02-16T04:26:50;100907.88;;;12.37;100.00
45523;BME280;31254;51.680;5.394;2024-02-16T04:29:16;100767.41;;;11.50;100.00
45523;BME280;31254;51.680;5.394;2024-02-16T04:31:43;100855.81;;;12.03;100.00
45523;BME280;31254;51.680;5.394;2024-02-16T04:34:12;100927.34;;;12.34;100.00
45523;BME280;31254;51.680;5.394;2024-02-16T04:36:39;100896.53;;;12.32;100.00
45523;BME280;31254;51.680;5.394;2024-02-16T04:39:05;100889.97;;;12.17;100.00
45523;BME280;31254;51.680;5.394;2024-02-16T04:41:32;100847.63;;;12.03;100.00
45523;BME280;31254;51.680;5.394;2024-02-16T04:43:58;100908.84;;;12.28;100.00
45523;BME280;31254;51.680;5.394;2024-02-16T04:46:25;100841.47;;;11.83;100.00
45523;BME280;31254;51.680;5.394;2024-02-16T04:48:53;100881.38;;;12.12;100.00
45523;BME280;31254;51.680;5.394;2024-02-16T04:51:19;100920.09;;;12.25;100.00
45523;BME280;31254;51.680;5.394;2024-02-16T04:53:46;100886.84;;;12.12;100.00
45523;BME280;31254;51.680;5.394;2024-02-16T04:56:13;100914.88;;;12.14;100.00
45523;BME280;31254;51.680;5.394;2024-02-16T04:58:42;100836.19;;;11.63;100.00
45523;BME280;31254;51.680;5.394;2024-02-16T05:01:09;100882.16;;;11.86;100.00
45523;BME280;31254;51.680;5.394;2024-02-16T05:03:36;100914.50;;;12.09;100.00
45523;BME280;31254;51.680;5.394;2024-02-16T05:06:03;100898.94;;;11.91;100.00
45523;BME280;31254;51.680;5.394;2024-02-16T05:08:30;100857.97;;;11.73;100.00
45523;BME280;31254;51.680;5.394;2024-02-16T05:10:57;100919.25;;;12.06;100.00
45523;BME280;31254;51.680;5.394;2024-02-16T05:13:24;100913.09;;;12.04;100.00
45523;BME280;31254;51.680;5.394;2024-02-16T05:15:52;100873.38;;;11.82;100.00
45523;BME280;31254;51.680;5.394;2024-02-16T05:18:22;100871.53;;;11.83;100.00
45523;BME280;31254;51.680;5.394;2024-02-16T05:20:49;100909.34;;;12.05;100.00
45523;BME280;31254;51.680;5.394;2024-02-16T05:23:15;100767.91;;;11.27;100.00
45523;BME280;31254;51.680;5.394;2024-02-16T05:25:42;100778.84;;;11.27;100.00
45523;BME280;31254;51.680;5.394;2024-02-16T05:28:08;100940.28;;;12.06;100.00
45523;BME280;31254;51.680;5.394;2024-02-16T05:30:35;100838.59;;;11.66;100.00
45523;BME280;31254;51.680;5.394;2024-02-16T05:33:02;100748.63;;;11.11;100.00
45523;BME280;31254;51.680;5.394;2024-02-16T05:35:29;100791.53;;;11.37;100.00
45523;BME280;31254;51.680;5.394;2024-02-16T05:38:00;100895.94;;;11.94;100.00
45523;BME280;31254;51.680;5.394;2024-02-16T05:40:33;100890.75;;;11.91;100.00
45523;BME280;31254;51.680;5.394;2024-02-16T05:43:11;100686.59;;;10.49;100.00
45523;BME280;31254;51.680;5.394;2024-02-16T05:45:38;100729.34;;;10.94;100.00
45523;BME280;31254;51.680;5.394;2024-02-16T05:48:08;100772.88;;;11.14;100.00
45523;BME280;31254;51.680;5.394;2024-02-16T05:50:37;100917.72;;;12.04;100.00
45523;BME280;31254;51.680;5.394;2024-02-16T05:53:04;100814.41;;;11.36;100.00
45523;BME280;31254;51.680;5.394;2024-02-16T05:55:30;100924.88;;;12.05;100.00
45523;BME280;31254;51.680;5.394;2024-02-16T05:57:57;100941.44;;;12.03;100.00
45523;BME280;31254;51.680;5.394;2024-02-16T06:00:23;100873.81;;;11.69;100.00
45523;BME280;31254;51.680;5.394;2024-02-16T06:02:50;100828.22;;;11.34;100.00
45523;BME280;31254;51.680;5.394;2024-02-16T06:05:17;100920.38;;;11.96;100.00
45523;BME280;31254;51.680;5.394;2024-02-16T06:07:43;100928.81;;;12.02;100.00
45523;BME280;31254;51.680;5.394;2024-02-16T06:10:10;100680.53;;;10.55;100.00
45523;BME280;31254;51.680;5.394;2024-02-16T06:12:38;100913.06;;;11.86;100.00
45523;BME280;31254;51.680;5.394;2024-02-16T06:15:05;100838.03;;;11.45;100.00
45523;BME280;31254;51.680;5.394;2024-02-16T06:17:32;100905.56;;;11.88;100.00
45523;BME280;31254;51.680;5.394;2024-02-16T06:19:59;100933.22;;;12.03;100.00
45523;BME280;31254;51.680;5.394;2024-02-16T06:22:27;100929.63;;;11.67;100.00
45523;BME280;31254;51.680;5.394;2024-02-16T06:24:54;100894.34;;;11.74;100.00
45523;BME280;31254;51.680;5.394;2024-02-16T06:27:20;100807.91;;;11.19;100.00
45523;BME280;31254;51.680;5.394;2024-02-16T06:29:47;100694.75;;;10.49;100.00
45523;BME280;31254;51.680;5.394;2024-02-16T06:32:14;100975.44;;;12.01;100.00
45523;BME280;31254;51.680;5.394;2024-02-16T06:34:43;100836.50;;;11.24;100.00
45523;BME280;31254;51.680;5.394;2024-02-16T06:37:12;100799.09;;;11.07;100.00
45523;BME280;31254;51.680;5.394;2024-02-16T06:39:39;100960.84;;;12.10;100.00
45523;BME280;31254;51.680;5.394;2024-02-16T06:42:06;100889.56;;;11.58;100.00
45523;BME280;31254;51.680;5.394;2024-02-16T06:44:32;100928.31;;;11.89;100.00
45523;BME280;31254;51.680;5.394;2024-02-16T06:46:59;100934.25;;;11.84;100.00
45523;BME280;31254;51.680;5.394;2024-02-16T06:49:26;100785.06;;;11.02;100.00
45523;BME280;31254;51.680;5.394;2024-02-16T06:51:53;100960.41;;;12.05;100.00
45523;BME280;31254;51.680;5.394;2024-02-16T06:54:20;100880.59;;;11.47;100.00
45523;BME280;31254;51.680;5.394;2024-02-16T06:56:47;100876.44;;;11.43;100.00
45523;BME280;31254;51.680;5.394;2024-02-16T06:59:14;100978.72;;;12.04;100.00
45523;BME280;31254;51.680;5.394;2024-02-16T07:01:41;100984.19;;;12.04;100.00
45523;BME280;31254;51.680;5.394;2024-02-16T07:04:07;100865.50;;;11.25;100.00
45523;BME280;31254;51.680;5.394;2024-02-16T07:06:38;100932.13;;;11.60;100.00
45523;BME280;31254;51.680;5.394;2024-02-16T07:09:05;100942.03;;;11.61;100.00
45523;BME280;31254;51.680;5.394;2024-02-16T07:11:31;100971.56;;;11.76;100.00
45523;BME280;31254;51.680;5.394;2024-02-16T07:13:58;100912.38;;;11.48;100.00
45523;BME280;31254;51.680;5.394;2024-02-16T07:16:28;100907.06;;;11.47;100.00
45523;BME280;31254;51.680;5.394;2024-02-16T07:18:55;100847.22;;;11.08;100.00
45523;BME280;31254;51.680;5.394;2024-02-16T07:21:21;100838.63;;;11.03;100.00
45523;BME280;31254;51.680;5.394;2024-02-16T07:23:49;100974.53;;;11.82;100.00
45523;BME280;31254;51.680;5.394;2024-02-16T07:26:17;101018.94;;;12.12;100.00
45523;BME280;31254;51.680;5.394;2024-02-16T07:28:46;100886.44;;;11.34;100.00
45523;BME280;31254;51.680;5.394;2024-02-16T07:31:12;101044.97;;;12.16;100.00
45523;BME280;31254;51.680;5.394;2024-02-16T07:33:41;100960.94;;;11.73;100.00
45523;BME280;31254;51.680;5.394;2024-02-16T07:36:08;100887.25;;;11.17;100.00
45523;BME280;31254;51.680;5.394;2024-02-16T07:38:35;100986.03;;;11.86;100.00
45523;BME280;31254;51.680;5.394;2024-02-16T07:41:01;100964.06;;;11.60;100.00
45523;BME280;31254;51.680;5.394;2024-02-16T07:43:32;100906.63;;;11.42;100.00
45523;BME280;31254;51.680;5.394;2024-02-16T07:45:59;100970.47;;;11.68;100.00
45523;BME280;31254;51.680;5.394;2024-02-16T07:48:25;100900.25;;;11.33;100.00
45523;BME280;31254;51.680;5.394;2024-02-16T07:50:52;101039.50;;;12.16;100.00
45523;BME280;31254;51.680;5.394;2024-02-16T07:53:19;101053.97;;;12.27;100.00
45523;BME280;31254;51.680;5.394;2024-02-16T07:55:46;101029.56;;;11.97;100.00
45523;BME280;31254;51.680;5.394;2024-02-16T07:58:13;100983.41;;;11.94;100.00
45523;BME280;31254;51.680;5.394;2024-02-16T08:00:39;101052.84;;;12.37;100.00
45523;BME280;31254;51.680;5.394;2024-02-16T08:03:06;101008.56;;;12.16;99.91
45523;BME280;31254;51.680;5.394;2024-02-16T08:05:33;101039.31;;;12.36;99.67
45523;BME280;31254;51.680;5.394;2024-02-16T08:07:59;100935.56;;;11.80;99.14
45523;BME280;31254;51.680;5.394;2024-02-16T08:10:26;100964.03;;;12.05;98.99
45523;BME280;31254;51.680;5.394;2024-02-16T08:12:53;101055.44;;;12.57;99.26
45523;BME280;31254;51.680;5.394;2024-02-16T08:15:19;100825.06;;;11.29;99.18
45523;BME280;31254;51.680;5.394;2024-02-16T08:17:52;101066.84;;;12.70;99.23
45523;BME280;31254;51.680;5.394;2024-02-16T08:20:19;101090.75;;;12.68;99.73
45523;BME280;31254;51.680;5.394;2024-02-16T08:22:47;101069.59;;;12.70;99.91
45523;BME280;31254;51.680;5.394;2024-02-16T08:25:13;101069.28;;;12.73;99.72
45523;BME280;31254;51.680;5.394;2024-02-16T08:27:40;101053.41;;;12.59;100.00
45523;BME280;31254;51.680;5.394;2024-02-16T08:30:07;101015.69;;;12.27;100.00
45523;BME280;31254;51.680;5.394;2024-02-16T08:32:36;101010.13;;;12.36;100.00
45523;BME280;31254;51.680;5.394;2024-02-16T08:35:03;101084.97;;;12.71;100.00
45523;BME280;31254;51.680;5.394;2024-02-16T08:37:30;101028.66;;;12.24;100.00
45523;BME280;31254;51.680;5.394;2024-02-16T08:39:57;101096.63;;;12.73;100.00
45523;BME280;31254;51.680;5.394;2024-02-16T08:42:24;100990.03;;;12.10;100.00
45523;BME280;31254;51.680;5.394;2024-02-16T08:44:51;101029.19;;;12.28;100.00
45523;BME280;31254;51.680;5.394;2024-02-16T08:47:17;100994.13;;;12.05;100.00
45523;BME280;31254;51.680;5.394;2024-02-16T08:49:44;101117.81;;;12.71;100.00
45523;BME280;31254;51.680;5.394;2024-02-16T08:52:11;101114.22;;;12.71;100.00
45523;BME280;31254;51.680;5.394;2024-02-16T08:54:38;101116.97;;;12.71;100.00
45523;BME280;31254;51.680;5.394;2024-02-16T08:57:05;101126.75;;;12.73;100.00
45523;BME280;31254;51.680;5.394;2024-02-16T08:59:32;100857.44;;;11.06;100.00
45523;BME280;31254;51.680;5.394;2024-02-16T09:02:00;101143.03;;;12.75;100.00
45523;BME280;31254;51.680;5.394;2024-02-16T09:04:27;101143.03;;;12.75;100.00
45523;BME280;31254;51.680;5.394;2024-02-16T09:06:54;101042.72;;;12.12;100.00
45523;BME280;31254;51.680;5.394;2024-02-16T09:09:20;101051.69;;;12.22;100.00
45523;BME280;31254;51.680;5.394;2024-02-16T09:11:47;101149.41;;;12.84;100.00
45523;BME280;31254;51.680;5.394;2024-02-16T09:14:14;100917.56;;;11.42;100.00
45523;BME280;31254;51.680;5.394;2024-02-16T09:16:40;101050.13;;;12.19;100.00
45523;BME280;31254;51.680;5.394;2024-02-16T09:19:07;101120.09;;;12.58;100.00
45523;BME280;31254;51.680;5.394;2024-02-16T09:21:34;100923.91;;;11.42;100.00
45523;BME280;31254;51.680;5.394;2024-02-16T09:24:01;101170.22;;;12.94;100.00
45523;BME280;31254;51.680;5.394;2024-02-16T09:26:28;101086.78;;;12.44;100.00
45523;BME280;31254;51.680;5.394;2024-02-16T09:29:00;101188.75;;;13.01;100.00
45523;BME280;31254;51.680;5.394;2024-02-16T09:31:27;101124.31;;;12.70;100.00
45523;BME280;31254;51.680;5.394;2024-02-16T09:33:53;101186.88;;;13.01;100.00
45523;BME280;31254;51.680;5.394;2024-02-16T09:36:20;101084.13;;;12.35;100.00
45523;BME280;31254;51.680;5.394;2024-02-16T09:38:47;101056.47;;;12.20;100.00
45523;BME280;31254;51.680;5.394;2024-02-16T09:41:14;101190.00;;;13.06;100.00
45523;BME280;31254;51.680;5.394;2024-02-16T09:43:43;101131.44;;;12.63;100.00
45523;BME280;31254;51.680;5.394;2024-02-16T09:46:09;100968.03;;;11.65;100.00
45523;BME280;31254;51.680;5.394;2024-02-16T09:48:39;101068.97;;;12.22;100.00
45523;BME280;31254;51.680;5.394;2024-02-16T09:51:08;101207.13;;;13.08;100.00
45523;BME280;31254;51.680;5.394;2024-02-16T09:53:35;100987.00;;;11.67;100.00
45523;BME280;31254;51.680;5.394;2024-02-16T09:56:05;101098.97;;;12.14;100.00
45523;BME280;31254;51.680;5.394;2024-02-16T09:58:31;101210.59;;;13.10;100.00
45523;BME280;31254;51.680;5.394;2024-02-16T10:00:58;101225.31;;;13.09;100.00
45523;BME280;31254;51.680;5.394;2024-02-16T10:03:27;101218.09;;;13.08;100.00
45523;BME280;31254;51.680;5.394;2024-02-16T10:06:09;100877.72;;;11.03;100.00
45523;BME280;31254;51.680;5.394;2024-02-16T10:08:54;100934.81;;;11.24;100.00
45523;BME280;31254;51.680;5.394;2024-02-16T10:11:22;101198.69;;;12.84;100.00
45523;BME280;31254;51.680;5.394;2024-02-16T10:13:58;101141.44;;;12.54;100.00
45523;BME280;31254;51.680;5.394;2024-02-16T10:16:25;100985.34;;;11.56;100.00
45523;BME280;31254;51.680;5.394;2024-02-16T10:18:55;101174.44;;;12.71;100.00
45523;BME280;31254;51.680;5.394;2024-02-16T10:21:29;101245.72;;;13.15;100.00
45523;BME280;31254;51.680;5.394;2024-02-16T10:24:00;101073.16;;;11.99;100.00
45523;BME280;31254;51.680;5.394;2024-02-16T10:26:31;101238.31;;;13.07;100.00
45523;BME280;31254;51.680;5.394;2024-02-16T10:28:58;101264.56;;;13.18;100.00
45523;BME280;31254;51.680;5.394;2024-02-16T10:31:25;101222.34;;;12.85;100.00
45523;BME280;31254;51.680;5.394;2024-02-16T10:33:59;101049.06;;;11.84;100.00
45523;BME280;31254;51.680;5.394;2024-02-16T10:36:26;101240.69;;;12.92;100.00
45523;BME280;31254;51.680;5.394;2024-02-16T10:38:55;101223.19;;;12.85;100.00
45523;BME280;31254;51.680;5.394;2024-02-16T10:41:28;101256.13;;;12.93;100.00
45523;BME280;31254;51.680;5.394;2024-02-16T10:43:56;101294.56;;;13.20;100.00
45523;BME280;31254;51.680;5.394;2024-02-16T10:46:23;101302.06;;;13.17;100.00
45523;BME280;31254;51.680;5.394;2024-02-16T10:48:53;101258.63;;;12.87;100.00
45523;BME280;31254;51.680;5.394;2024-02-16T10:51:23;101238.41;;;12.70;100.00
45523;BME280;31254;51.680;5.394;2024-02-16T10:53:55;101333.22;;;13.16;100.00
45523;BME280;31254;51.680;5.394;2024-02-16T10:56:33;101243.34;;;12.66;100.00
45523;BME280;31254;51.680;5.394;2024-02-16T10:59:01;101314.09;;;12.89;100.00
45523;BME280;31254;51.680;5.394;2024-02-16T11:01:32;101358.91;;;13.15;100.00
45523;BME280;31254;51.680;5.394;2024-02-16T11:04:06;101267.13;;;12.66;100.00
45523;BME280;31254;51.680;5.394;2024-02-16T11:06:52;101337.28;;;13.12;100.00
45523;BME280;31254;51.680;5.394;2024-02-16T11:11:53;101343.06;;;13.09;100.00
45523;BME280;31254;51.680;5.394;2024-02-16T11:14:21;101328.16;;;12.94;100.00
45523;BME280;31254;51.680;5.394;2024-02-16T11:16:48;101360.38;;;13.10;100.00
45523;BME280;31254;51.680;5.394;2024-02-16T11:19:16;101329.81;;;12.87;100.00
45523;BME280;31254;51.680;5.394;2024-02-16T11:22:02;101374.75;;;13.12;100.00
45523;BME280;31254;51.680;5.394;2024-02-16T11:24:31;101095.22;;;11.50;100.00
45523;BME280;31254;51.680;5.394;2024-02-16T11:27:04;101177.38;;;11.86;100.00
45523;BME280;31254;51.680;5.394;2024-02-16T11:29:35;101105.84;;;11.53;100.00
45523;BME280;31254;51.680;5.394;2024-02-16T11:32:03;101373.91;;;13.11;100.00
45523;BME280;31254;51.680;5.394;2024-02-16T11:34:30;101246.34;;;12.17;100.00
45523;BME280;31254;51.680;5.394;2024-02-16T11:36:59;101383.56;;;13.15;100.00
45523;BME280;31254;51.680;5.394;2024-02-16T11:39:26;100920.31;;;10.39;100.00
45523;BME280;31254;51.680;5.394;2024-02-16T11:42:04;101155.09;;;11.81;100.00
45523;BME280;31254;51.680;5.394;2024-02-16T11:44:32;101380.66;;;13.17;100.00
45523;BME280;31254;51.680;5.394;2024-02-16T11:47:00;101153.22;;;11.81;100.00
45523;BME280;31254;51.680;5.394;2024-02-16T11:49:30;101381.50;;;13.17;100.00
45523;BME280;31254;51.680;5.394;2024-02-16T11:51:59;101342.16;;;12.91;100.00
45523;BME280;31254;51.680;5.394;2024-02-16T11:54:26;101333.47;;;12.77;100.00
45523;BME280;31254;51.680;5.394;2024-02-16T11:56:53;101209.72;;;12.00;100.00
45523;BME280;31254;51.680;5.394;2024-02-16T11:59:20;101351.72;;;12.87;100.00
45523;BME280;31254;51.680;5.394;2024-02-16T12:04:25;101351.72;;;12.87;100.00
45523;BME280;31254;51.680;5.394;2024-02-16T12:06:56;101357.59;;;12.92;100.00
45523;BME280;31254;51.680;5.394;2024-02-16T12:09:28;101403.97;;;13.21;100.00
45523;BME280;31254;51.680;5.394;2024-02-16T12:11:58;101413.06;;;13.22;100.00
45523;BME280;31254;51.680;5.394;2024-02-16T12:14:25;101231.28;;;12.03;100.00
45523;BME280;31254;51.680;5.394;2024-02-16T12:16:55;101343.31;;;12.70;100.00
45523;BME280;31254;51.680;5.394;2024-02-16T12:19:23;101257.13;;;12.19;100.00
45523;BME280;31254;51.680;5.394;2024-02-16T12:21:55;101433.13;;;13.22;100.00
45523;BME280;31254;51.680;5.394;2024-02-16T12:24:23;101382.25;;;12.92;100.00
45523;BME280;31254;51.680;5.394;2024-02-16T12:26:50;101445.78;;;13.23;100.00
45523;BME280;31254;51.680;5.394;2024-02-16T12:29:17;101256.03;;;12.12;100.00
45523;BME280;31254;51.680;5.394;2024-02-16T12:31:44;101421.59;;;13.19;100.00
45523;BME280;31254;51.680;5.394;2024-02-16T12:34:11;101236.06;;;11.92;100.00
45523;BME280;31254;51.680;5.394;2024-02-16T12:36:40;101464.19;;;13.31;100.00
45523;BME280;31254;51.680;5.394;2024-02-16T12:39:13;101250.44;;;11.94;100.00
45523;BME280;31254;51.680;5.394;2024-02-16T12:41:42;101306.22;;;12.20;100.00
45523;BME280;31254;51.680;5.394;2024-02-16T12:44:10;101470.28;;;13.25;100.00
45523;BME280;31254;51.680;5.394;2024-02-16T12:46:37;101490.50;;;13.24;100.00
45523;BME280;31254;51.680;5.394;2024-02-16T12:49:05;101481.19;;;13.07;100.00